Randy J. Trosclair — WDG2643 — position and weather

sailwx.info

Track history (hours):
 
Tides and Currents Weather Stations Pressure Air Temp Water Temp Dewpoint Dewpoint Depression Visibility Wind Speed Wind Dir Waves Ship Positions

Randy J. Trosclair

Owner: Florida Marine, LLC, Mandeville, LA. More information available from US FCC via Universal Licensing System and Coast Guard Vessel Documentation Center.

Last reported at 2018-Mar-31 13:58 UTC. Time now 2018-Apr-21 17:05 UTC.
Position N 32°40' W 091°08'.
Warning: this ship's position is 21 days out of date.

Length 27 m; draft 2.9 m.

Type: Other ship. MMSI: 367517730.

Date/timePositionNaut miles runAvg speedWind from/ knotsBaromVisibWave heightAir tempDewpointWater temp
2018-Mar-31 13:58N 32°40' W 091°08'3 5.2
2018-Mar-31 13:21N 32°37' W 091°09'2 5.1
2018-Mar-31 13:00N 32°36' W 091°08'2 4.9
2018-Mar-31 12:31N 32°33' W 091°06'3 5.1
2018-Mar-31 12:00N 32°31' W 091°07'3 5.1
2018-Mar-31 11:31N 32°28' W 091°06'3 5.5
2018-Mar-31 11:01N 32°27' W 091°04'3 5.4
2018-Mar-31 10:30N 32°26' W 091°01'2 4.9
2018-Mar-31 10:00N 32°23' W 090°60'2 4.4
2018-Mar-31 09:30N 32°21' W 090°59'2 4.7
2018-Mar-31 09:00N 32°21' W 090°57'2 4.6
2018-Mar-31 08:28N 32°19' W 090°54'2 4.2
2018-Mar-31 08:01N 32°18' W 090°55'2 3.4
2018-Mar-31 07:31N 32°17' W 090°57'2 4.8
2018-Mar-31 07:01N 32°15' W 090°59'3 5.3
2018-Mar-31 06:31N 32°12' W 090°59'2 4.4
2018-Mar-31 06:01N 32°10' W 090°60'2 4.5
2018-Mar-31 05:29N 32°08' W 091°01'2 3.9
2018-Mar-31 04:53N 32°08' W 091°03'2 4.6
2018-Mar-31 04:30N 32°08' W 091°06'3 4.8
2018-Mar-31 03:50N 32°04' W 091°05'  
Track history (hours):
 
Tides and Currents Weather Stations Pressure Air Temp Water Temp Dewpoint Dewpoint Depression Visibility Wind Speed Wind Dir Waves Ship Positions

Randy J. Trosclair

Owner: Florida Marine, LLC, Mandeville, LA. More information available from US FCC via Universal Licensing System and Coast Guard Vessel Documentation Center.

Last reported at 2018-Mar-31 13:58 UTC. Time now 2018-Apr-21 17:05 UTC.
Position N 32°40' W 091°08'.
Warning: this ship's position is 21 days out of date.

Length 27 m; draft 2.9 m.

Type: Other ship. MMSI: 367517730.

Date/timePositionNaut miles runAvg speedWind from/ knotsBaromVisibWave heightAir tempDewpointWater temp
2018-Mar-31 13:58N 32°40' W 091°08'3 5.2
2018-Mar-31 13:21N 32°37' W 091°09'2 5.1
2018-Mar-31 13:00N 32°36' W 091°08'2 4.9
2018-Mar-31 12:31N 32°33' W 091°06'3 5.1
2018-Mar-31 12:00N 32°31' W 091°07'3 5.1
2018-Mar-31 11:31N 32°28' W 091°06'3 5.5
2018-Mar-31 11:01N 32°27' W 091°04'3 5.4
2018-Mar-31 10:30N 32°26' W 091°01'2 4.9
2018-Mar-31 10:00N 32°23' W 090°60'2 4.4
2018-Mar-31 09:30N 32°21' W 090°59'2 4.7
2018-Mar-31 09:00N 32°21' W 090°57'2 4.6
2018-Mar-31 08:28N 32°19' W 090°54'2 4.2
2018-Mar-31 08:01N 32°18' W 090°55'2 3.4
2018-Mar-31 07:31N 32°17' W 090°57'2 4.8
2018-Mar-31 07:01N 32°15' W 090°59'3 5.3
2018-Mar-31 06:31N 32°12' W 090°59'2 4.4
2018-Mar-31 06:01N 32°10' W 090°60'2 4.5
2018-Mar-31 05:29N 32°08' W 091°01'2 3.9
2018-Mar-31 04:53N 32°08' W 091°03'2 4.6
2018-Mar-31 04:30N 32°08' W 091°06'3 4.8
2018-Mar-31 03:50N 32°04' W 091°05'  

Dump ship's entire track history